createdAt,value
2019-03-12T04:25:49.533Z,5.60
2019-03-12T04:28:19.852Z,6.07
2019-03-12T04:30:50.116Z,3.90
2019-03-12T04:34:12.525Z,8.13
2019-03-12T04:36:43.785Z,7.10
2019-03-12T04:39:14.325Z,6.33
2019-03-12T04:41:44.653Z,5.80
2019-03-12T04:44:14.984Z,5.30
2019-03-12T04:46:45.238Z,5.20
2019-03-12T04:49:15.512Z,4.97
2019-03-12T04:51:45.773Z,7.03
2019-03-12T04:54:16.046Z,3.83
2019-03-12T04:56:46.320Z,8.47
2019-03-12T04:59:16.640Z,6.70
2019-03-12T05:01:46.910Z,8.17
2019-03-12T05:04:17.199Z,6.40
2019-03-12T05:06:47.473Z,4.33
2019-03-12T05:09:17.799Z,7.63
2019-03-12T05:11:48.091Z,9.37
2019-03-12T05:14:31.989Z,4.93
2019-03-12T05:17:22.282Z,6.73
2019-03-12T05:19:52.553Z,7.83
2019-03-12T05:22:24.462Z,4.77
2019-03-12T05:24:54.775Z,5.20
2019-03-12T05:27:25.227Z,7.93
2019-03-12T05:29:55.547Z,8.60
2019-03-12T05:32:27.061Z,7.53
2019-03-12T05:34:57.388Z,6.20
2019-03-12T05:37:27.647Z,5.17
2019-03-12T05:39:57.936Z,6.67
2019-03-12T05:42:28.234Z,5.73
2019-03-12T05:44:58.579Z,4.43
2019-03-12T05:47:28.841Z,4.67
2019-03-12T05:49:59.153Z,6.10
2019-03-12T05:52:29.406Z,5.33
2019-03-12T05:54:59.722Z,8.30
2019-03-12T05:57:30.002Z,4.00
2019-03-12T06:00:00.381Z,7.27
2019-03-12T06:02:30.761Z,4.80
2019-03-12T06:05:01.060Z,6.50
2019-03-12T06:07:31.338Z,5.53
2019-03-12T06:10:01.651Z,8.90
2019-03-12T06:12:31.925Z,6.40
2019-03-12T06:15:02.199Z,4.90
2019-03-12T06:17:33.910Z,7.50
2019-03-12T06:20:04.271Z,5.97
2019-03-12T06:22:34.518Z,7.10
2019-03-12T06:25:05.057Z,7.47
2019-03-12T06:27:35.335Z,6.80
2019-03-12T06:30:06.280Z,6.07
2019-03-12T06:32:58.466Z,7.93
2019-03-12T06:35:41.792Z,5.77
2019-03-12T06:38:29.948Z,6.43
2019-03-12T06:41:04.733Z,9.73
2019-03-12T06:43:47.126Z,9.33
2019-03-12T06:46:40.482Z,8.20
2019-03-12T06:49:18.569Z,6.40
2019-03-12T06:52:26.961Z,8.00
2019-03-12T06:55:18.919Z,5.23
2019-03-12T06:58:34.086Z,7.03
2019-03-12T07:01:16.018Z,8.67
2019-03-12T07:04:01.331Z,6.97
2019-03-12T07:06:56.719Z,11.47
2019-03-12T07:09:39.120Z,9.53
2019-03-12T07:12:15.184Z,12.10
2019-03-12T07:14:58.812Z,13.67
2019-03-12T07:17:50.569Z,8.80
2019-03-12T07:20:38.504Z,10.83
2019-03-12T07:23:27.481Z,11.50
2019-03-12T07:26:31.846Z,13.10
2019-03-12T07:29:15.222Z,11.73
2019-03-12T07:32:09.286Z,11.77
2019-03-12T07:35:08.556Z,14.10
2019-03-12T07:38:00.078Z,13.80
2019-03-12T07:41:03.072Z,14.80
2019-03-12T07:43:50.852Z,15.80
2019-03-12T07:46:49.606Z,7.90
2019-03-12T07:49:48.787Z,15.87
2019-03-12T07:52:44.545Z,10.00
2019-03-12T07:55:33.137Z,13.93
2019-03-12T07:58:37.807Z,9.30
2019-03-12T08:01:36.540Z,10.63
2019-03-12T08:04:15.554Z,8.93
2019-03-12T08:07:16.884Z,10.30
2019-03-12T08:10:06.153Z,9.83
2019-03-12T08:13:01.672Z,12.10
2019-03-12T08:15:41.546Z,11.17
2019-03-12T08:18:36.843Z,11.43
2019-03-12T08:21:31.365Z,10.07
2019-03-12T08:24:35.734Z,14.23
2019-03-12T08:27:14.180Z,13.40
2019-03-12T08:30:03.455Z,14.27
2019-03-12T08:32:49.613Z,14.93
2019-03-12T08:35:37.765Z,8.63
2019-03-12T08:38:14.646Z,8.27
2019-03-12T08:40:58.001Z,9.57
2019-03-12T08:43:35.671Z,8.17
2019-03-12T08:46:23.824Z,11.23
2019-03-12T08:49:10.118Z,9.00
2019-03-12T08:52:05.838Z,12.10
2019-03-12T08:55:03.939Z,11.03
2019-03-12T08:57:52.115Z,12.93
2019-03-12T09:00:40.582Z,8.67
2019-03-12T09:03:30.028Z,10.27
2019-03-12T09:06:10.450Z,9.37
2019-03-12T09:08:48.658Z,7.97
2019-03-12T09:11:44.743Z,8.30
2019-03-12T09:14:54.075Z,8.60
2019-03-12T09:17:42.215Z,10.63
2019-03-12T09:20:31.388Z,9.80
2019-03-12T09:23:19.458Z,6.47
2019-03-12T09:26:07.599Z,9.93
2019-03-12T09:28:47.444Z,12.83
2019-03-12T09:31:35.856Z,9.77
2019-03-12T09:34:26.969Z,13.40
2019-03-12T09:37:19.828Z,8.40
2019-03-12T09:40:09.630Z,7.83
2019-03-12T09:43:02.292Z,25.73
2019-03-12T09:45:50.843Z,9.27
2019-03-12T09:48:37.070Z,13.67
2019-03-12T09:51:21.595Z,10.90
2019-03-12T09:54:11.459Z,9.80
2019-03-12T09:57:10.393Z,11.80
2019-03-12T10:00:16.241Z,12.13
2019-03-12T10:02:58.916Z,9.07
2019-03-12T10:06:20.485Z,8.57
2019-03-12T10:09:14.674Z,8.80
2019-03-12T10:11:54.873Z,9.53
2019-03-12T10:14:44.557Z,7.90
2019-03-12T10:17:35.307Z,15.23
2019-03-12T10:20:23.675Z,7.37
2019-03-12T10:23:16.984Z,11.20
2019-03-12T10:26:15.962Z,9.17
2019-03-12T10:29:18.312Z,10.57
2019-03-12T10:32:06.720Z,10.67
2019-03-12T10:35:09.769Z,7.87
2019-03-12T10:37:54.004Z,13.93
2019-03-12T10:40:50.819Z,11.07
2019-03-12T10:43:50.019Z,22.63
2019-03-12T10:46:40.381Z,8.60
2019-03-12T10:49:14.992Z,13.67
2019-03-12T10:51:49.627Z,11.57
2019-03-12T10:54:25.977Z,12.70
2019-03-12T10:57:10.043Z,9.30
2019-03-12T10:59:42.905Z,14.50
2019-03-12T11:02:14.265Z,10.67
2019-03-12T11:04:46.398Z,9.23
2019-03-12T11:07:17.467Z,12.63
2019-03-12T11:09:48.781Z,12.33
2019-03-12T11:12:24.058Z,10.90
2019-03-12T11:14:55.309Z,10.57
2019-03-12T11:17:26.409Z,14.77
2019-03-12T11:20:01.195Z,16.50
2019-03-12T11:22:33.963Z,13.83
2019-03-12T11:25:04.401Z,13.17
2019-03-12T11:27:34.709Z,11.20
2019-03-12T11:30:10.324Z,15.17
2019-03-12T11:32:42.328Z,9.73
2019-03-12T11:35:12.862Z,11.77
2019-03-12T11:37:43.297Z,11.70
2019-03-12T11:40:17.188Z,7.50
2019-03-12T11:42:48.357Z,9.17
2019-03-12T11:45:20.157Z,8.33
2019-03-12T11:47:52.052Z,10.57
2019-03-12T11:50:22.432Z,13.50
2019-03-12T11:52:58.064Z,11.63
2019-03-12T11:55:29.176Z,10.70
2019-03-12T11:57:59.537Z,10.00
2019-03-12T12:00:34.247Z,8.30
2019-03-12T12:03:05.881Z,6.53
2019-03-12T12:05:37.739Z,14.90
2019-03-12T12:08:08.108Z,7.63
2019-03-12T12:10:38.446Z,8.73
2019-03-12T12:13:08.736Z,14.17
2019-03-12T12:15:42.632Z,9.60
2019-03-12T12:18:13.131Z,7.70
2019-03-12T12:20:43.497Z,13.67
2019-03-12T12:23:14.318Z,8.50
2019-03-12T12:25:46.733Z,6.30
2019-03-12T12:28:18.380Z,6.70
2019-03-12T12:30:48.889Z,11.83
2019-03-12T12:33:19.383Z,5.10
2019-03-12T12:35:49.635Z,8.73
2019-03-12T12:38:22.048Z,9.17
2019-03-12T12:40:52.559Z,5.63
2019-03-12T12:43:23.217Z,7.90
2019-03-12T12:45:54.843Z,6.43
2019-03-12T12:48:25.424Z,8.80
2019-03-12T12:51:02.895Z,7.67
2019-03-12T12:53:29.098Z,7.80
2019-03-12T12:55:59.881Z,6.13
2019-03-12T12:58:36.038Z,6.83
2019-03-12T13:01:09.930Z,8.03
2019-03-12T13:03:40.582Z,7.33
2019-03-12T13:06:11.724Z,6.53
2019-03-12T13:08:43.104Z,6.70
2019-03-12T13:11:18.361Z,7.47
2019-03-12T13:13:50.274Z,10.17
2019-03-12T13:16:25.458Z,4.03
2019-03-12T13:18:54.536Z,7.13
2019-03-12T13:21:26.171Z,7.37
2019-03-12T13:23:56.899Z,4.27
2019-03-12T13:26:27.324Z,5.83
2019-03-12T13:28:58.397Z,6.67
2019-03-12T13:31:29.581Z,8.30
2019-03-12T13:34:00.136Z,9.77
2019-03-12T13:36:30.459Z,5.53
2019-03-12T13:39:02.134Z,7.40
2019-03-12T13:41:35.689Z,6.20
2019-03-12T13:44:06.193Z,6.33
2019-03-12T13:46:58.605Z,8.07
2019-03-12T13:49:30.444Z,5.30
2019-03-12T13:52:02.401Z,6.90
2019-03-12T13:54:33.501Z,5.87
2019-03-12T13:57:03.910Z,9.20
2019-03-12T13:59:34.573Z,5.37
2019-03-12T14:02:04.954Z,8.90
2019-03-12T14:04:35.541Z,8.90
2019-03-12T14:07:06.335Z,7.83
2019-03-12T14:09:36.633Z,7.80
2019-03-12T14:12:07.913Z,6.03
2019-03-12T14:14:39.001Z,5.87
2019-03-12T14:17:09.297Z,5.50
2019-03-12T14:19:39.701Z,3.10
2019-03-12T14:22:12.753Z,4.97
2019-03-12T14:24:43.037Z,8.90
2019-03-12T14:27:13.406Z,5.20
2019-03-12T14:29:43.686Z,4.00
2019-03-12T14:32:16.319Z,7.80
2019-03-12T14:34:48.070Z,6.03
2019-03-12T14:37:18.367Z,6.20
2019-03-12T14:39:48.642Z,5.07
2019-03-12T14:42:18.900Z,5.10
2019-03-12T14:44:49.526Z,4.23
2019-03-12T14:47:20.044Z,5.63
2019-03-12T14:49:50.583Z,7.53
2019-03-12T14:52:35.314Z,4.57
2019-03-12T14:55:06.562Z,6.53
2019-03-12T14:57:36.866Z,5.33
2019-03-12T15:00:14.314Z,7.20
2019-03-12T15:02:44.785Z,5.07
2019-03-12T15:05:15.139Z,5.47
2019-03-12T15:07:45.417Z,4.67
2019-03-12T15:10:15.762Z,4.13
2019-03-12T15:12:46.957Z,6.37
2019-03-12T15:15:18.276Z,3.53
2019-03-12T15:17:48.983Z,4.60
2019-03-12T15:20:19.692Z,6.43
2019-03-12T15:22:51.255Z,8.43
2019-03-12T15:25:24.345Z,5.47
2019-03-12T15:27:56.556Z,9.73
2019-03-12T15:30:26.962Z,7.83
2019-03-12T15:32:57.276Z,6.53
2019-03-12T15:35:28.553Z,6.47
2019-03-12T15:38:00.511Z,7.63
2019-03-12T15:40:32.583Z,7.83
2019-03-12T15:43:03.012Z,6.77
2019-03-12T15:45:33.439Z,6.77
2019-03-12T15:48:03.842Z,4.43
2019-03-12T15:50:34.782Z,5.93
2019-03-12T15:53:05.621Z,6.77
2019-03-12T15:55:39.150Z,4.73
2019-03-12T15:58:10.249Z,7.50
2019-03-12T16:00:40.711Z,7.30
2019-03-12T16:03:11.184Z,4.23
2019-03-12T16:05:41.690Z,5.67
2019-03-12T16:08:12.225Z,7.43
2019-03-12T16:10:42.647Z,4.53
2019-03-12T16:13:15.147Z,5.47
2019-03-12T16:15:47.718Z,4.33
2019-03-12T16:18:19.175Z,6.87
2019-03-12T16:20:51.575Z,3.63
2019-03-12T16:23:21.884Z,5.93
2019-03-12T16:25:52.407Z,5.13
2019-03-12T16:28:23.302Z,7.30
2019-03-12T16:30:53.965Z,6.57
2019-03-12T16:33:25.994Z,4.83
2019-03-12T16:35:58.148Z,5.30
2019-03-12T16:38:28.686Z,5.97
2019-03-12T16:41:00.535Z,6.67
2019-03-12T16:43:32.846Z,4.77
2019-03-12T16:46:05.016Z,8.50
2019-03-12T16:48:38.612Z,8.10
2019-03-12T16:51:08.545Z,8.37
2019-03-12T16:53:39.203Z,9.00
2019-03-12T16:56:13.692Z,8.80
2019-03-12T16:58:45.803Z,8.77
2019-03-12T17:01:26.873Z,5.87
2019-03-12T17:03:57.510Z,4.27
2019-03-12T17:06:27.822Z,5.87
2019-03-12T17:09:01.942Z,5.17
2019-03-12T17:11:33.840Z,8.50
2019-03-12T17:14:04.870Z,8.80
2019-03-12T17:16:35.271Z,7.27
2019-03-12T17:19:05.520Z,5.50
2019-03-12T17:21:36.309Z,6.23
2019-03-12T17:24:07.477Z,6.93
2019-03-12T17:26:38.308Z,3.70
2019-03-12T17:29:08.647Z,5.83
2019-03-12T17:31:38.945Z,5.73
2019-03-12T17:34:10.314Z,5.80
2019-03-12T17:36:40.584Z,5.53
2019-03-12T17:39:10.881Z,2.87
2019-03-12T17:41:42.106Z,6.13
2019-03-12T17:44:12.402Z,5.77
2019-03-12T17:46:43.167Z,2.23
2019-03-12T17:49:13.704Z,3.20
2019-03-12T17:51:43.966Z,4.50
2019-03-12T17:54:14.284Z,3.77
2019-03-12T17:56:44.561Z,6.87
2019-03-12T17:59:15.200Z,3.63
2019-03-12T18:01:45.923Z,6.23
2019-03-12T18:04:16.261Z,4.37
2019-03-12T18:06:47.056Z,3.07
2019-03-12T18:09:17.420Z,4.50
2019-03-12T18:11:47.709Z,6.83
2019-03-12T18:14:18.148Z,4.60
2019-03-12T18:16:48.492Z,3.90
2019-03-12T18:19:18.869Z,4.10
2019-03-12T18:21:49.189Z,3.70
2019-03-12T18:24:19.839Z,2.33
2019-03-12T18:26:50.929Z,3.27
2019-03-12T18:29:21.497Z,4.37
2019-03-12T18:31:51.870Z,1.77
2019-03-12T18:34:22.194Z,3.57
2019-03-12T18:36:52.610Z,2.30
2019-03-12T18:39:22.933Z,4.20
2019-03-12T18:41:55.837Z,2.90
2019-03-12T18:44:25.378Z,3.67
2019-03-12T18:46:55.750Z,4.90
2019-03-12T18:49:26.106Z,5.20
2019-03-12T18:51:56.673Z,5.10
2019-03-12T18:54:27.981Z,3.10
2019-03-12T18:56:58.390Z,6.77
2019-03-12T18:59:28.784Z,6.57
2019-03-12T19:01:59.220Z,3.30
2019-03-12T19:04:32.416Z,3.57
2019-03-12T19:07:03.230Z,3.23
2019-03-12T19:09:33.500Z,5.97
2019-03-12T19:12:04.960Z,2.80
2019-03-12T19:14:36.067Z,3.23
2019-03-12T19:17:07.904Z,5.03
2019-03-12T19:19:41.754Z,3.03
2019-03-12T19:22:12.359Z,3.17
2019-03-12T19:24:42.972Z,3.90
2019-03-12T19:27:13.318Z,9.00
2019-03-12T19:29:43.548Z,6.53
2019-03-12T19:32:28.823Z,3.77
2019-03-12T19:34:59.118Z,4.53
2019-03-12T19:37:29.496Z,5.33
2019-03-12T19:40:00.473Z,5.30
2019-03-12T19:42:30.970Z,6.10
2019-03-12T19:45:22.655Z,3.50
2019-03-12T19:47:53.094Z,5.27
2019-03-12T19:50:23.724Z,6.07
2019-03-12T19:52:54.619Z,5.63
2019-03-12T19:55:28.351Z,3.40
2019-03-12T19:57:58.788Z,3.23
2019-03-12T20:00:30.032Z,4.27
2019-03-12T20:03:10.649Z,3.33
2019-03-12T20:05:35.093Z,6.47
2019-03-12T20:08:06.781Z,5.53
2019-03-12T20:11:48.496Z,4.87
2019-03-12T20:14:55.473Z,3.43
2019-03-12T20:17:58.566Z,3.30
2019-03-12T20:21:17.194Z,4.00
2019-03-12T20:24:39.603Z,4.27
2019-03-12T20:28:09.237Z,4.70
2019-03-12T20:31:30.661Z,4.50
2019-03-12T20:34:43.194Z,5.13
2019-03-12T20:38:22.177Z,4.43
2019-03-12T20:41:30.145Z,4.63
2019-03-12T20:44:29.249Z,5.90
2019-03-12T20:47:56.104Z,4.30
2019-03-12T20:51:06.646Z,2.77
2019-03-12T20:54:26.467Z,3.33
2019-03-12T20:57:33.494Z,3.47
2019-03-12T21:00:48.425Z,2.77
2019-03-12T21:04:09.934Z,3.73
2019-03-12T21:07:17.633Z,6.00
2019-03-12T21:10:16.989Z,3.63
2019-03-12T21:13:42.611Z,3.87
2019-03-12T21:16:49.007Z,3.53
2019-03-12T21:20:13.486Z,3.53
2019-03-12T21:23:22.827Z,2.63
2019-03-12T21:26:44.034Z,4.33
2019-03-12T21:29:37.119Z,3.43
2019-03-12T21:32:08.475Z,4.90
2019-03-12T21:34:39.523Z,4.17
2019-03-12T21:37:10.170Z,4.20
2019-03-12T21:39:54.630Z,4.50
2019-03-12T21:42:16.978Z,3.47
2019-03-12T21:44:47.823Z,4.57
2019-03-12T21:47:18.493Z,4.63
2019-03-12T21:49:57.214Z,3.07
2019-03-12T21:52:27.954Z,5.17
